createdAt,value
2019-01-10T00:00:23.659Z,100.00
2019-01-10T00:02:52.389Z,100.00
2019-01-10T00:05:21.304Z,100.00
2019-01-10T00:07:49.953Z,100.00
2019-01-10T00:10:18.888Z,100.00
2019-01-10T00:12:47.691Z,100.00
2019-01-10T00:15:19.536Z,100.00
2019-01-10T00:17:50.120Z,100.00
2019-01-10T00:20:18.892Z,100.00
2019-01-10T00:22:47.720Z,100.00
2019-01-10T00:25:16.468Z,100.00
2019-01-10T00:27:45.318Z,100.00
2019-01-10T00:30:18.935Z,100.00
2019-01-10T00:32:53.440Z,100.00
2019-01-10T00:35:22.076Z,100.00
2019-01-10T00:37:50.709Z,100.00
2019-01-10T00:40:19.397Z,100.00
2019-01-10T00:42:49.805Z,100.00
2019-01-10T00:45:18.519Z,100.00
2019-01-10T00:47:47.816Z,100.00
2019-01-10T00:50:18.993Z,100.00
2019-01-10T00:52:47.619Z,100.00
2019-01-10T00:55:16.294Z,100.00
2019-01-10T00:57:44.923Z,100.00
2019-01-10T01:00:16.571Z,100.00
2019-01-10T01:02:45.258Z,100.00
2019-01-10T01:05:15.402Z,100.00
2019-01-10T01:07:44.138Z,100.00
2019-01-10T01:10:21.198Z,100.00
2019-01-10T01:12:58.013Z,100.00
2019-01-10T01:15:20.605Z,100.00
2019-01-10T01:17:49.541Z,100.00
2019-01-10T01:20:20.725Z,100.00
2019-01-10T01:22:49.470Z,100.00
2019-01-10T01:25:18.247Z,100.00
2019-01-10T01:27:46.882Z,100.00
2019-01-10T01:30:17.967Z,100.00
2019-01-10T01:32:46.957Z,100.00
2019-01-10T01:35:16.387Z,100.00
2019-01-10T01:37:45.316Z,100.00
2019-01-10T01:40:16.677Z,100.00
2019-01-10T01:42:45.308Z,100.00
2019-01-10T01:45:16.510Z,100.00
2019-01-10T01:47:45.280Z,100.00
2019-01-10T01:50:16.825Z,100.00
2019-01-10T01:52:45.454Z,100.00
2019-01-10T01:55:14.278Z,100.00
2019-01-10T01:57:43.126Z,100.00
2019-01-10T02:00:20.170Z,100.00
2019-01-10T02:02:48.803Z,100.00
2019-01-10T02:05:17.934Z,100.00
2019-01-10T02:07:47.008Z,100.00
2019-01-10T02:10:17.849Z,100.00
2019-01-10T02:12:46.484Z,100.00
2019-01-10T02:15:15.561Z,100.00
2019-01-10T02:17:49.161Z,100.00
2019-01-10T02:20:14.766Z,100.00
2019-01-10T02:22:43.637Z,100.00
2019-01-10T02:25:14.688Z,100.00
2019-01-10T02:27:43.531Z,100.00
2019-01-10T02:30:17.829Z,100.00
2019-01-10T02:32:46.465Z,100.00
2019-01-10T02:35:16.226Z,100.00
2019-01-10T02:37:44.906Z,100.00
2019-01-10T02:40:13.756Z,100.00
2019-01-10T02:42:42.396Z,100.00
2019-01-10T02:45:14.084Z,100.00
2019-01-10T02:47:42.807Z,100.00
2019-01-10T02:50:14.714Z,100.00
2019-01-10T02:52:43.394Z,100.00
2019-01-10T02:55:12.023Z,100.00
2019-01-10T02:57:40.668Z,100.00
2019-01-10T03:00:20.737Z,100.00
2019-01-10T03:02:49.370Z,100.00
2019-01-10T03:05:18.400Z,100.00
2019-01-10T03:07:47.083Z,100.00
2019-01-10T03:10:18.724Z,100.00
2019-01-10T03:12:47.372Z,100.00
2019-01-10T03:15:16.244Z,100.00
2019-01-10T03:17:44.882Z,100.00
2019-01-10T03:20:19.337Z,100.00
2019-01-10T03:22:48.163Z,100.00
2019-01-10T03:25:16.792Z,100.00
2019-01-10T03:27:45.530Z,100.00
2019-01-10T03:30:17.145Z,100.00
2019-01-10T03:32:45.709Z,100.00
2019-01-10T03:35:14.848Z,100.00
2019-01-10T03:37:43.545Z,100.00
2019-01-10T03:40:14.832Z,100.00
2019-01-10T03:42:43.866Z,100.00
2019-01-10T03:45:17.958Z,100.00
2019-01-10T03:47:46.708Z,100.00
2019-01-10T03:50:16.739Z,100.00
2019-01-10T03:52:45.671Z,100.00
2019-01-10T03:55:14.712Z,100.00
2019-01-10T03:57:43.541Z,100.00
2019-01-10T04:00:23.067Z,100.00
2019-01-10T04:02:51.725Z,100.00
2019-01-10T04:05:20.755Z,100.00
2019-01-10T04:07:49.932Z,100.00
2019-01-10T04:10:18.579Z,100.00
2019-01-10T04:12:47.232Z,100.00
2019-01-10T04:15:17.042Z,100.00
2019-01-10T04:17:45.684Z,100.00
2019-01-10T04:20:16.668Z,100.00
2019-01-10T04:22:45.299Z,100.00
2019-01-10T04:25:14.743Z,100.00
2019-01-10T04:27:43.657Z,100.00
2019-01-10T04:30:15.666Z,100.00
2019-01-10T04:32:44.233Z,100.00
2019-01-10T04:35:12.905Z,100.00
2019-01-10T04:37:41.553Z,100.00
2019-01-10T04:40:13.448Z,100.00
2019-01-10T04:42:42.051Z,100.00
2019-01-10T04:45:10.797Z,100.00
2019-01-10T04:47:39.452Z,100.00
2019-01-10T04:50:13.237Z,100.00
2019-01-10T04:52:41.826Z,100.00
2019-01-10T04:55:11.778Z,100.00
2019-01-10T04:57:40.767Z,100.00
2019-01-10T05:00:18.451Z,100.00
2019-01-10T05:02:47.077Z,100.00
2019-01-10T05:05:15.722Z,100.00
2019-01-10T05:07:44.374Z,100.00
2019-01-10T05:10:13.250Z,100.00
2019-01-10T05:12:41.973Z,100.00
2019-01-10T05:15:13.193Z,100.00
2019-01-10T05:17:42.117Z,100.00
2019-01-10T05:20:16.272Z,100.00
2019-01-10T05:22:45.058Z,100.00
2019-01-10T05:25:13.810Z,100.00
2019-01-10T05:27:42.445Z,100.00
2019-01-10T05:30:19.921Z,100.00
2019-01-10T05:32:48.763Z,100.00
2019-01-10T05:35:17.413Z,100.00
2019-01-10T05:37:46.146Z,100.00
2019-01-10T05:40:14.883Z,100.00
2019-01-10T05:42:47.608Z,100.00
2019-01-10T05:45:17.886Z,100.00
2019-01-10T05:47:46.521Z,100.00
2019-01-10T05:50:17.817Z,100.00
2019-01-10T05:52:47.181Z,100.00
2019-01-10T05:55:18.489Z,100.00
2019-01-10T05:57:47.055Z,100.00
2019-01-10T06:00:21.748Z,100.00
2019-01-10T06:02:50.416Z,100.00
2019-01-10T06:05:19.047Z,100.00
2019-01-10T06:07:47.682Z,100.00
2019-01-10T06:10:27.039Z,100.00
2019-01-10T06:12:55.671Z,100.00
2019-01-10T06:15:24.297Z,100.00
2019-01-10T06:17:52.993Z,100.00
2019-01-10T06:20:23.137Z,100.00
2019-01-10T06:22:51.767Z,100.00
2019-01-10T06:25:20.670Z,100.00
2019-01-10T06:27:49.231Z,100.00
2019-01-10T06:30:22.606Z,100.00
2019-01-10T06:32:51.197Z,100.00
2019-01-10T06:35:20.539Z,100.00
2019-01-10T06:37:49.191Z,100.00
2019-01-10T06:40:20.143Z,100.00
2019-01-10T06:42:48.798Z,100.00
2019-01-10T06:45:18.528Z,100.00
2019-01-10T06:47:47.396Z,100.00
2019-01-10T06:50:17.348Z,100.00
2019-01-10T06:52:46.197Z,100.00
2019-01-10T06:55:15.079Z,100.00
2019-01-10T06:57:43.712Z,100.00
2019-01-10T07:00:18.061Z,100.00
2019-01-10T07:02:46.815Z,100.00
2019-01-10T07:05:15.453Z,100.00
2019-01-10T07:07:44.095Z,100.00
2019-01-10T07:10:24.029Z,100.00
2019-01-10T07:12:52.651Z,100.00
2019-01-10T07:15:21.425Z,100.00
2019-01-10T07:17:50.104Z,100.00
2019-01-10T07:20:18.741Z,100.00
2019-01-10T07:22:52.391Z,100.00
2019-01-10T07:25:21.049Z,100.00
2019-01-10T07:27:49.688Z,100.00
2019-01-10T07:30:24.461Z,100.00
2019-01-10T07:32:53.096Z,99.70
2019-01-10T07:35:21.678Z,99.12
2019-01-10T07:37:54.430Z,99.59
2019-01-10T07:40:23.065Z,99.41
2019-01-10T07:42:51.699Z,99.48
2019-01-10T07:45:22.362Z,99.55
2019-01-10T07:47:51.005Z,98.73
2019-01-10T07:50:23.517Z,98.46
2019-01-10T07:52:52.134Z,99.05
2019-01-10T07:55:20.767Z,99.41
2019-01-10T07:57:49.396Z,98.62
2019-01-10T08:00:19.877Z,97.50
2019-01-10T08:02:48.548Z,97.08
2019-01-10T08:05:17.384Z,97.15
2019-01-10T08:07:46.446Z,96.34
2019-01-10T08:10:16.673Z,96.78
2019-01-10T08:12:45.787Z,96.20
2019-01-10T08:15:17.886Z,96.58
2019-01-10T08:17:46.526Z,96.78
2019-01-10T08:20:15.324Z,96.79
2019-01-10T08:22:44.218Z,96.23
2019-01-10T08:25:13.460Z,95.16
2019-01-10T08:27:42.186Z,95.23
2019-01-10T08:30:16.159Z,95.45
2019-01-10T08:32:44.804Z,94.97
2019-01-10T08:35:15.042Z,94.52
2019-01-10T08:37:43.895Z,93.65
2019-01-10T08:40:12.724Z,93.84
2019-01-10T08:42:41.360Z,93.42
2019-01-10T08:45:11.242Z,92.24
2019-01-10T08:47:39.859Z,91.59
2019-01-10T08:50:13.989Z,90.35
2019-01-10T08:52:42.678Z,90.39
2019-01-10T08:55:11.305Z,88.93
2019-01-10T08:57:39.844Z,88.31
2019-01-10T09:00:11.761Z,89.79
2019-01-10T09:02:40.400Z,90.98
2019-01-10T09:05:09.388Z,90.38
2019-01-10T09:07:37.993Z,88.91
2019-01-10T09:10:09.538Z,89.40
2019-01-10T09:12:38.161Z,88.97
2019-01-10T09:15:09.073Z,87.00
2019-01-10T09:17:37.715Z,87.01
2019-01-10T09:20:09.294Z,87.08
2019-01-10T09:22:37.941Z,88.04
2019-01-10T09:25:07.189Z,85.65
2019-01-10T09:27:35.760Z,85.64
2019-01-10T09:30:05.973Z,85.54
2019-01-10T09:32:34.607Z,86.30
2019-01-10T09:35:03.232Z,85.95
2019-01-10T09:37:31.907Z,85.19
2019-01-10T09:40:00.401Z,84.50
2019-01-10T09:42:28.927Z,84.75
2019-01-10T09:44:57.653Z,84.52
2019-01-10T09:47:26.294Z,81.53
2019-01-10T09:49:54.859Z,81.12
2019-01-10T09:52:23.536Z,80.22
2019-01-10T09:54:52.126Z,78.66
2019-01-10T09:57:20.678Z,79.28
2019-01-10T09:59:50.340Z,79.25
2019-01-10T10:02:19.046Z,79.31
2019-01-10T10:04:47.604Z,82.06
2019-01-10T10:07:16.581Z,82.44
2019-01-10T10:09:45.258Z,82.35
2019-01-10T10:12:13.895Z,83.46
2019-01-10T10:14:42.753Z,84.32
2019-01-10T10:17:11.240Z,87.65
2019-01-10T10:19:39.871Z,89.11
2019-01-10T10:22:08.715Z,91.35
2019-01-10T10:24:37.275Z,91.00
2019-01-10T10:27:05.917Z,90.81
2019-01-10T10:29:34.587Z,90.22
2019-01-10T10:32:03.207Z,89.79
2019-01-10T10:34:31.779Z,88.80
2019-01-10T10:37:00.450Z,89.84
2019-01-10T10:39:29.081Z,88.73
2019-01-10T10:41:57.708Z,88.66
2019-01-10T10:44:26.368Z,88.45
2019-01-10T10:46:54.923Z,92.15
2019-01-10T10:49:23.718Z,92.52
2019-01-10T10:51:52.402Z,94.42
2019-01-10T10:54:20.969Z,95.46
2019-01-10T10:56:49.534Z,96.67
2019-01-10T10:59:18.215Z,96.34
2019-01-10T11:01:46.850Z,97.09
2019-01-10T11:04:15.485Z,96.36
2019-01-10T11:06:44.417Z,96.80
2019-01-10T11:09:13.055Z,97.18
2019-01-10T11:11:41.560Z,96.69
2019-01-10T11:14:10.480Z,96.96
2019-01-10T11:16:39.121Z,97.00
2019-01-10T11:19:07.765Z,96.46
2019-01-10T11:21:36.378Z,97.86
2019-01-10T11:24:05.522Z,98.30
2019-01-10T11:26:34.171Z,99.77
2019-01-10T11:29:02.790Z,99.72
2019-01-10T11:31:31.422Z,100.00
2019-01-10T11:34:00.062Z,99.63
2019-01-10T11:36:28.769Z,99.43
2019-01-10T11:38:57.392Z,100.00
2019-01-10T11:41:26.031Z,100.00
2019-01-10T11:43:54.910Z,100.00
2019-01-10T11:46:23.564Z,100.00
2019-01-10T11:48:52.273Z,99.84
2019-01-10T11:51:20.935Z,99.86
2019-01-10T11:53:49.530Z,100.00
2019-01-10T11:56:18.210Z,100.00
2019-01-10T11:58:46.892Z,99.21
2019-01-10T12:01:15.540Z,100.00
2019-01-10T12:03:44.183Z,100.00
2019-01-10T12:06:12.856Z,99.09
2019-01-10T12:08:41.493Z,100.00
2019-01-10T12:11:10.134Z,99.83
2019-01-10T12:13:38.805Z,100.00
2019-01-10T12:16:07.447Z,100.00
2019-01-10T12:18:36.094Z,100.00
2019-01-10T12:21:04.783Z,100.00
2019-01-10T12:23:33.432Z,100.00
2019-01-10T12:26:02.148Z,100.00
2019-01-10T12:28:31.003Z,100.00
2019-01-10T12:30:59.566Z,100.00
2019-01-10T12:33:28.234Z,100.00
2019-01-10T12:35:56.937Z,100.00
2019-01-10T12:38:25.770Z,100.00
2019-01-10T12:40:54.406Z,100.00
2019-01-10T12:43:23.087Z,100.00
2019-01-10T12:45:51.816Z,99.94
2019-01-10T12:48:20.446Z,100.00
2019-01-10T12:50:49.109Z,97.81
2019-01-10T12:53:17.752Z,98.33
2019-01-10T12:55:46.367Z,98.38
2019-01-10T12:58:14.975Z,97.48
2019-01-10T13:00:43.663Z,97.15
2019-01-10T13:03:12.249Z,97.86
2019-01-10T13:05:41.082Z,99.40
2019-01-10T13:08:09.711Z,99.60
2019-01-10T13:10:38.347Z,99.54
2019-01-10T13:13:07.036Z,100.00
2019-01-10T13:15:35.671Z,100.00
2019-01-10T13:18:04.312Z,99.31
2019-01-10T13:20:32.976Z,98.65
2019-01-10T13:23:01.662Z,97.75
2019-01-10T13:25:30.273Z,98.19
2019-01-10T13:27:58.942Z,97.54
2019-01-10T13:30:27.570Z,97.31
2019-01-10T13:32:56.398Z,96.77
2019-01-10T13:35:25.120Z,98.52
2019-01-10T13:37:53.745Z,98.59
2019-01-10T13:40:22.754Z,97.60
2019-01-10T13:42:57.474Z,97.65
2019-01-10T13:45:26.281Z,97.77
2019-01-10T13:47:55.110Z,97.05
2019-01-10T13:50:26.307Z,95.63
2019-01-10T13:52:54.943Z,95.40
2019-01-10T13:55:24.060Z,94.72
2019-01-10T13:57:52.676Z,94.76
2019-01-10T14:00:28.811Z,96.30
2019-01-10T14:02:57.465Z,97.03
2019-01-10T14:05:26.095Z,96.37
2019-01-10T14:07:54.724Z,96.58
2019-01-10T14:10:23.631Z,95.89
2019-01-10T14:12:52.379Z,96.50
2019-01-10T14:15:26.691Z,97.21
2019-01-10T14:17:55.631Z,97.35
2019-01-10T14:20:24.255Z,97.23
2019-01-10T14:22:52.878Z,96.60
2019-01-10T14:25:21.721Z,96.76
2019-01-10T14:27:50.366Z,96.37
2019-01-10T14:30:21.905Z,97.12
2019-01-10T14:32:50.982Z,96.90
2019-01-10T14:35:20.100Z,96.60
2019-01-10T14:37:49.022Z,97.48
2019-01-10T14:40:18.623Z,96.43
2019-01-10T14:42:47.249Z,96.53
2019-01-10T14:45:17.881Z,97.01
2019-01-10T14:47:46.546Z,97.26
2019-01-10T14:50:18.358Z,97.47
2019-01-10T14:52:46.978Z,96.64
2019-01-10T14:55:16.145Z,97.00
2019-01-10T14:57:44.787Z,96.38
2019-01-10T15:00:16.385Z,96.22
2019-01-10T15:02:45.146Z,96.79
2019-01-10T15:05:13.787Z,96.84
2019-01-10T15:07:42.433Z,98.46
2019-01-10T15:10:12.543Z,98.44
2019-01-10T15:12:42.019Z,98.11
2019-01-10T15:15:13.792Z,98.43
2019-01-10T15:17:42.468Z,98.07
2019-01-10T15:20:14.168Z,98.29
2019-01-10T15:22:42.793Z,97.28
2019-01-10T15:25:11.459Z,98.22
2019-01-10T15:27:40.290Z,98.96
2019-01-10T15:30:17.253Z,98.39
2019-01-10T15:32:45.952Z,98.90
2019-01-10T15:35:15.437Z,99.89
2019-01-10T15:37:44.317Z,100.00
2019-01-10T15:40:15.982Z,100.00
2019-01-10T15:42:44.621Z,100.00
2019-01-10T15:45:15.964Z,100.00
2019-01-10T15:47:44.425Z,100.00
2019-01-10T15:50:15.875Z,100.00
2019-01-10T15:52:44.639Z,100.00
2019-01-10T15:55:15.475Z,100.00
2019-01-10T15:57:44.120Z,100.00
2019-01-10T16:00:15.979Z,100.00
2019-01-10T16:02:44.624Z,100.00
2019-01-10T16:05:13.254Z,100.00
2019-01-10T16:07:42.017Z,100.00
2019-01-10T16:10:13.269Z,100.00
2019-01-10T16:12:41.899Z,100.00
2019-01-10T16:15:13.584Z,100.00
2019-01-10T16:17:42.234Z,100.00
2019-01-10T16:20:12.877Z,100.00
2019-01-10T16:22:42.670Z,100.00
2019-01-10T16:25:21.138Z,100.00
2019-01-10T16:27:50.038Z,100.00
2019-01-10T16:30:27.396Z,100.00
2019-01-10T16:32:56.242Z,100.00
2019-01-10T16:35:24.884Z,100.00
2019-01-10T16:37:53.795Z,100.00
2019-01-10T16:40:22.681Z,100.00
2019-01-10T16:42:51.511Z,100.00
2019-01-10T16:45:22.792Z,100.00
2019-01-10T16:47:51.486Z,100.00
2019-01-10T16:50:20.140Z,100.00
2019-01-10T16:52:48.797Z,100.00
2019-01-10T16:55:17.452Z,100.00
2019-01-10T16:57:46.192Z,100.00
2019-01-10T17:00:26.202Z,100.00
2019-01-10T17:02:54.844Z,100.00
2019-01-10T17:05:23.502Z,100.00
2019-01-10T17:07:52.321Z,100.00
2019-01-10T17:10:21.370Z,100.00
2019-01-10T17:12:49.994Z,100.00
2019-01-10T17:15:18.680Z,100.00
2019-01-10T17:17:47.235Z,100.00
2019-01-10T17:20:21.186Z,100.00
2019-01-10T17:22:49.874Z,100.00
2019-01-10T17:25:19.934Z,100.00
2019-01-10T17:27:48.587Z,100.00
2019-01-10T17:30:23.009Z,100.00
2019-01-10T17:32:51.646Z,100.00
2019-01-10T17:35:22.952Z,100.00
2019-01-10T17:37:51.634Z,100.00
2019-01-10T17:40:22.185Z,100.00
2019-01-10T17:42:51.294Z,100.00
2019-01-10T17:45:24.330Z,100.00
2019-01-10T17:47:53.080Z,100.00
2019-01-10T17:50:21.912Z,100.00
2019-01-10T17:52:50.697Z,100.00
2019-01-10T17:55:19.382Z,100.00
2019-01-10T17:57:48.022Z,100.00
2019-01-10T18:00:25.130Z,100.00
2019-01-10T18:02:53.759Z,100.00
2019-01-10T18:05:22.535Z,100.00
2019-01-10T18:07:51.427Z,100.00
2019-01-10T18:10:23.351Z,100.00
2019-01-10T18:12:51.989Z,100.00
2019-01-10T18:15:23.521Z,100.00
2019-01-10T18:17:52.388Z,100.00
2019-01-10T18:20:33.173Z,100.00
2019-01-10T18:23:01.821Z,100.00
2019-01-10T18:25:30.587Z,100.00
2019-01-10T18:27:59.273Z,100.00
2019-01-10T18:30:27.925Z,100.00
2019-01-10T18:32:56.566Z,100.00
2019-01-10T18:35:26.409Z,100.00
2019-01-10T18:38:01.395Z,100.00
2019-01-10T18:40:30.032Z,100.00
2019-01-10T18:42:58.912Z,100.00
2019-01-10T18:45:29.676Z,100.00
2019-01-10T18:47:58.399Z,100.00
2019-01-10T18:50:27.172Z,100.00
2019-01-10T18:52:55.824Z,100.00
2019-01-10T18:55:24.462Z,100.00
2019-01-10T18:57:53.078Z,100.00
2019-01-10T19:00:29.293Z,100.00
2019-01-10T19:02:58.344Z,100.00
2019-01-10T19:05:27.488Z,100.00
2019-01-10T19:07:56.058Z,100.00
2019-01-10T19:10:25.140Z,100.00
2019-01-10T19:12:53.877Z,100.00
2019-01-10T19:15:22.528Z,100.00
2019-01-10T19:17:51.150Z,100.00
2019-01-10T19:20:24.850Z,100.00
2019-01-10T19:22:54.014Z,100.00
2019-01-10T19:25:22.943Z,100.00
2019-01-10T19:27:51.693Z,100.00
2019-01-10T19:30:28.408Z,100.00
2019-01-10T19:32:57.057Z,100.00
2019-01-10T19:35:25.704Z,100.00
2019-01-10T19:37:54.497Z,100.00
2019-01-10T19:40:23.436Z,100.00
2019-01-10T19:42:52.085Z,100.00
2019-01-10T19:45:21.967Z,100.00
2019-01-10T19:47:50.614Z,100.00
2019-01-10T19:50:23.898Z,100.00
2019-01-10T19:52:52.567Z,100.00
2019-01-10T19:55:22.410Z,100.00
2019-01-10T19:57:51.051Z,100.00
2019-01-10T20:00:34.676Z,100.00
2019-01-10T20:03:03.520Z,100.00
2019-01-10T20:05:32.161Z,100.00
2019-01-10T20:08:01.124Z,100.00
2019-01-10T20:10:29.706Z,100.00
2019-01-10T20:12:58.346Z,100.00
2019-01-10T20:15:27.025Z,100.00
2019-01-10T20:17:56.871Z,100.00
2019-01-10T20:20:33.866Z,100.00
2019-01-10T20:23:03.073Z,100.00
2019-01-10T20:25:31.712Z,100.00
2019-01-10T20:28:00.645Z,100.00
2019-01-10T20:30:29.274Z,100.00
2019-01-10T20:32:57.853Z,100.00
2019-01-10T20:35:26.543Z,100.00
2019-01-10T20:37:55.183Z,100.00
2019-01-10T20:40:23.815Z,100.00
2019-01-10T20:42:52.690Z,100.00
2019-01-10T20:45:21.429Z,100.00
2019-01-10T20:47:50.074Z,100.00
2019-01-10T20:50:19.022Z,100.00
2019-01-10T20:52:47.654Z,100.00
2019-01-10T20:55:18.191Z,100.00
2019-01-10T20:57:46.892Z,100.00
2019-01-10T21:00:20.837Z,100.00
2019-01-10T21:02:50.237Z,100.00
2019-01-10T21:05:19.006Z,100.00
2019-01-10T21:07:49.484Z,100.00
2019-01-10T21:10:19.981Z,100.00
2019-01-10T21:12:49.338Z,100.00
2019-01-10T21:15:26.927Z,100.00
2019-01-10T21:17:56.048Z,100.00
2019-01-10T21:20:24.677Z,100.00
2019-01-10T21:22:53.495Z,100.00
2019-01-10T21:25:22.244Z,100.00
2019-01-10T21:27:50.887Z,100.00
2019-01-10T21:30:22.418Z,100.00
2019-01-10T21:32:51.358Z,100.00
2019-01-10T21:35:21.178Z,100.00
2019-01-10T21:37:49.800Z,100.00
2019-01-10T21:40:20.756Z,100.00
2019-01-10T21:42:50.394Z,100.00
2019-01-10T21:45:19.889Z,100.00
2019-01-10T21:47:48.579Z,100.00
2019-01-10T21:50:22.806Z,100.00
2019-01-10T21:52:53.019Z,100.00
2019-01-10T21:55:22.275Z,100.00
2019-01-10T21:57:51.138Z,100.00
2019-01-10T22:00:25.457Z,100.00
2019-01-10T22:02:54.794Z,100.00
2019-01-10T22:05:23.433Z,100.00
2019-01-10T22:07:52.006Z,100.00
2019-01-10T22:10:20.673Z,100.00
2019-01-10T22:12:49.312Z,100.00
2019-01-10T22:15:18.561Z,100.00
2019-01-10T22:17:47.223Z,100.00
2019-01-10T22:20:22.604Z,100.00
2019-01-10T22:22:51.226Z,100.00
2019-01-10T22:25:20.173Z,100.00
2019-01-10T22:27:48.766Z,100.00
2019-01-10T22:30:19.901Z,100.00
2019-01-10T22:32:48.858Z,100.00
2019-01-10T22:35:19.370Z,100.00
2019-01-10T22:37:48.154Z,100.00
2019-01-10T22:40:19.037Z,100.00
2019-01-10T22:42:47.484Z,99.64
2019-01-10T22:45:16.924Z,99.46
2019-01-10T22:47:45.737Z,99.62
2019-01-10T22:50:16.895Z,98.98
2019-01-10T22:52:45.738Z,98.79
2019-01-10T22:55:15.511Z,98.91
2019-01-10T22:57:44.211Z,99.17
2019-01-10T23:00:33.685Z,99.12
2019-01-10T23:03:06.561Z,99.12
2019-01-10T23:05:39.804Z,99.86
2019-01-10T23:08:08.497Z,100.00
2019-01-10T23:10:37.141Z,100.00
2019-01-10T23:13:05.893Z,100.00
2019-01-10T23:15:34.707Z,100.00
2019-01-10T23:18:04.040Z,100.00
2019-01-10T23:20:32.718Z,100.00
2019-01-10T23:23:12.530Z,100.00
2019-01-10T23:25:41.328Z,100.00
2019-01-10T23:28:10.054Z,100.00
2019-01-10T23:30:56.712Z,100.00
2019-01-10T23:33:26.223Z,100.00
2019-01-10T23:36:07.545Z,100.00
2019-01-10T23:38:36.296Z,100.00
2019-01-10T23:41:05.332Z,100.00
2019-01-10T23:43:33.963Z,99.83
2019-01-10T23:46:02.664Z,99.48
2019-01-10T23:48:31.302Z,99.15
2019-01-10T23:50:59.985Z,99.78
2019-01-10T23:53:28.902Z,99.79
2019-01-10T23:55:57.562Z,99.78
2019-01-10T23:58:26.597Z,99.75
